createdAt,value
2022-08-25T00:01:59.029Z,3.17
2022-08-25T00:04:27.099Z,3.38
2022-08-25T00:06:59.364Z,3.50
2022-08-25T00:09:27.721Z,3.58
2022-08-25T00:11:55.631Z,3.78
2022-08-25T00:14:29.638Z,3.08
2022-08-25T00:16:56.623Z,3.33
2022-08-25T00:19:27.681Z,3.10
2022-08-25T00:21:55.934Z,2.75
2022-08-25T00:24:24.551Z,3.00
2022-08-25T00:26:55.165Z,3.05
2022-08-25T00:29:23.566Z,3.50
2022-08-25T00:31:50.525Z,3.40
2022-08-25T00:34:20.813Z,2.92
2022-08-25T00:36:48.456Z,3.50
2022-08-25T00:39:15.240Z,3.22
2022-08-25T00:41:43.627Z,3.33
2022-08-25T00:44:13.048Z,3.10
2022-08-25T00:46:50.050Z,3.00
2022-08-25T00:49:50.929Z,3.75
2022-08-25T00:52:27.170Z,3.40
2022-08-25T00:55:06.235Z,3.60
2022-08-25T00:57:40.290Z,3.70
2022-08-25T01:00:25.140Z,3.40
2022-08-25T01:02:52.248Z,3.38
2022-08-25T01:05:20.753Z,3.60
2022-08-25T01:07:50.354Z,3.80
2022-08-25T01:10:20.560Z,3.88
2022-08-25T01:12:47.626Z,3.97
2022-08-25T01:15:17.688Z,4.13
2022-08-25T01:17:53.452Z,4.45
2022-08-25T01:20:22.869Z,4.40
2022-08-25T01:22:56.448Z,4.15
2022-08-25T01:25:47.986Z,4.40
2022-08-25T01:28:15.821Z,3.88
2022-08-25T01:30:43.430Z,4.45
2022-08-25T01:33:12.105Z,3.95
2022-08-25T01:35:40.567Z,3.85
2022-08-25T01:38:08.570Z,4.32
2022-08-25T01:40:37.074Z,3.90
2022-08-25T01:43:06.919Z,4.40
2022-08-25T01:45:34.889Z,5.07
2022-08-25T01:48:02.488Z,4.35
2022-08-25T01:50:29.712Z,4.32
2022-08-25T01:53:12.351Z,4.40
2022-08-25T01:56:02.702Z,4.18
2022-08-25T01:58:36.012Z,4.20
2022-08-25T02:01:07.296Z,3.83
2022-08-25T02:03:38.664Z,4.35
2022-08-25T02:06:11.636Z,4.07
2022-08-25T02:08:38.930Z,3.97
2022-08-25T02:11:05.929Z,4.22
2022-08-25T02:13:32.761Z,3.72
2022-08-25T02:16:01.380Z,4.63
2022-08-25T02:18:28.352Z,4.63
2022-08-25T02:20:55.408Z,4.40
2022-08-25T02:23:22.217Z,4.43
2022-08-25T02:25:49.141Z,4.55
2022-08-25T02:28:16.197Z,4.47
2022-08-25T02:30:44.051Z,4.25
2022-08-25T02:33:11.489Z,5.18
2022-08-25T02:35:39.120Z,4.70
2022-08-25T02:38:07.002Z,4.57
2022-08-25T02:40:34.759Z,4.85
2022-08-25T02:43:05.819Z,4.80
2022-08-25T02:45:32.740Z,4.90
2022-08-25T02:47:59.817Z,4.97
2022-08-25T02:50:26.719Z,4.38
2022-08-25T02:52:53.633Z,4.85
2022-08-25T02:55:20.815Z,5.05
2022-08-25T02:57:48.300Z,5.50
2022-08-25T03:00:16.781Z,5.85
2022-08-25T03:02:44.564Z,5.35
2022-08-25T03:05:13.525Z,4.93
2022-08-25T03:07:40.815Z,5.60
2022-08-25T03:10:12.926Z,5.43
2022-08-25T03:12:41.563Z,5.25
2022-08-25T03:15:12.952Z,5.95
2022-08-25T03:17:40.829Z,5.70
2022-08-25T03:20:10.955Z,6.25
2022-08-25T03:22:37.920Z,5.53
2022-08-25T03:25:24.773Z,6.40
2022-08-25T03:27:52.063Z,5.65
2022-08-25T03:30:19.382Z,6.13
2022-08-25T03:32:46.351Z,6.78
2022-08-25T03:35:13.615Z,5.95
2022-08-25T03:37:41.250Z,6.22
2022-08-25T03:40:15.217Z,5.22
2022-08-25T03:42:47.091Z,5.47
2022-08-25T03:45:16.480Z,5.60
2022-08-25T03:47:46.112Z,6.45
2022-08-25T03:50:14.154Z,5.88
2022-08-25T03:52:42.749Z,5.18
2022-08-25T03:55:12.459Z,5.80
2022-08-25T03:57:39.669Z,5.95
2022-08-25T04:00:11.855Z,4.97
2022-08-25T04:02:39.832Z,5.72
2022-08-25T04:05:07.369Z,6.13
2022-08-25T04:07:34.334Z,6.03
2022-08-25T04:10:01.432Z,6.00
2022-08-25T04:12:28.377Z,6.80
2022-08-25T04:14:57.175Z,6.03
2022-08-25T04:17:23.992Z,5.60
2022-08-25T04:19:50.847Z,6.13
2022-08-25T04:22:18.012Z,6.03
2022-08-25T04:24:44.865Z,6.00
2022-08-25T04:27:11.764Z,6.45
2022-08-25T04:29:38.603Z,6.10
2022-08-25T04:32:05.670Z,6.88
2022-08-25T04:34:32.503Z,6.40
2022-08-25T04:37:05.529Z,6.82
2022-08-25T04:39:32.407Z,7.30
2022-08-25T04:42:00.660Z,6.43
2022-08-25T04:44:28.436Z,7.80
2022-08-25T04:46:55.331Z,7.30
2022-08-25T04:49:22.360Z,8.23
2022-08-25T04:51:49.332Z,7.25
2022-08-25T04:54:17.446Z,7.25
2022-08-25T04:56:44.587Z,7.70
2022-08-25T04:59:14.679Z,6.78
2022-08-25T05:01:43.722Z,7.68
2022-08-25T05:04:14.702Z,8.13
2022-08-25T05:06:54.920Z,7.60
2022-08-25T05:09:21.837Z,6.80
2022-08-25T05:11:51.439Z,7.00
2022-08-25T05:14:21.757Z,8.52
2022-08-25T05:16:52.748Z,7.67
2022-08-25T05:19:19.872Z,8.18
2022-08-25T05:21:47.047Z,7.38
2022-08-25T05:24:13.923Z,7.80
2022-08-25T05:26:41.091Z,7.75
2022-08-25T05:29:08.160Z,8.02
2022-08-25T05:31:41.715Z,7.80
2022-08-25T05:36:37.119Z,7.78
2022-08-25T05:39:04.811Z,7.95
2022-08-25T05:41:32.083Z,7.95
2022-08-25T05:43:59.095Z,8.00
2022-08-25T05:46:26.440Z,7.57
2022-08-25T05:48:54.171Z,8.45
2022-08-25T05:51:21.120Z,7.72
2022-08-25T05:53:51.139Z,7.30
2022-08-25T05:56:18.890Z,7.15
2022-08-25T05:58:46.182Z,6.88
2022-08-25T06:01:47.395Z,7.03
2022-08-25T06:04:16.490Z,6.93
2022-08-25T06:06:43.902Z,7.13
2022-08-25T06:09:11.544Z,6.53
2022-08-25T06:11:40.357Z,7.38
2022-08-25T06:14:09.615Z,6.55
2022-08-25T06:16:37.373Z,6.30
2022-08-25T06:19:05.564Z,6.50
2022-08-25T06:21:32.369Z,6.28
2022-08-25T06:24:00.526Z,6.30
2022-08-25T06:26:27.416Z,6.43
2022-08-25T06:28:54.709Z,6.38
2022-08-25T06:31:22.737Z,6.47
2022-08-25T06:33:50.051Z,6.30
2022-08-25T06:36:17.221Z,6.47
2022-08-25T06:38:44.262Z,6.30
2022-08-25T06:41:12.443Z,6.00
2022-08-25T06:43:47.357Z,6.63
2022-08-25T06:46:21.582Z,5.78
2022-08-25T06:48:49.030Z,6.22
2022-08-25T06:51:18.914Z,5.78
2022-08-25T06:53:47.785Z,5.95
2022-08-25T06:56:16.247Z,5.53
2022-08-25T06:58:43.048Z,5.22
2022-08-25T07:01:20.631Z,5.95
2022-08-25T07:03:48.424Z,5.43
2022-08-25T07:06:18.325Z,5.32
2022-08-25T07:08:46.945Z,4.97
2022-08-25T07:11:16.269Z,5.35
2022-08-25T07:13:44.060Z,5.38
2022-08-25T07:16:15.774Z,5.28
2022-08-25T07:18:44.150Z,4.82
2022-08-25T07:21:12.668Z,5.07
2022-08-25T07:23:41.038Z,4.65
2022-08-25T07:26:35.986Z,4.90
2022-08-25T07:29:01.665Z,5.05
2022-08-25T07:31:30.277Z,4.45
2022-08-25T07:34:16.739Z,4.90
2022-08-25T07:36:44.522Z,4.30
2022-08-25T07:39:11.629Z,4.47
2022-08-25T07:41:41.202Z,4.75
2022-08-25T07:44:09.997Z,4.72
2022-08-25T07:46:37.004Z,4.65
2022-08-25T07:49:05.340Z,4.55
2022-08-25T07:52:05.051Z,4.18
2022-08-25T07:54:34.091Z,4.40
2022-08-25T07:57:03.501Z,4.68
2022-08-25T07:59:38.928Z,4.90
2022-08-25T08:02:09.301Z,4.60
2022-08-25T08:04:46.172Z,4.57
2022-08-25T08:07:13.112Z,4.75
2022-08-25T08:09:39.939Z,5.10
2022-08-25T08:12:07.280Z,5.22
2022-08-25T08:14:34.543Z,5.15
2022-08-25T08:17:06.964Z,5.53
2022-08-25T08:19:34.970Z,5.10
2022-08-25T08:22:03.456Z,5.10
2022-08-25T08:24:44.726Z,5.15
2022-08-25T08:27:18.425Z,4.55
2022-08-25T08:29:45.955Z,5.10
2022-08-25T08:32:13.546Z,4.95
2022-08-25T08:34:41.736Z,5.32
2022-08-25T08:37:10.476Z,5.40
2022-08-25T08:39:38.002Z,5.47
2022-08-25T08:42:32.581Z,5.13
2022-08-25T08:45:43.914Z,5.57
2022-08-25T08:48:13.701Z,5.30
2022-08-25T08:51:10.033Z,5.55
2022-08-25T08:54:00.032Z,5.38
2022-08-25T08:56:31.611Z,5.25
2022-08-25T08:59:09.691Z,5.03
2022-08-25T09:01:48.163Z,5.15
2022-08-25T09:04:28.116Z,5.10
2022-08-25T09:06:57.219Z,5.97
2022-08-25T09:09:30.523Z,5.68
2022-08-25T09:12:34.068Z,5.95
2022-08-25T09:15:17.564Z,6.25
2022-08-25T09:17:54.374Z,6.30
2022-08-25T09:20:42.949Z,6.28
2022-08-25T09:23:27.986Z,6.93
2022-08-25T09:28:40.919Z,6.45
2022-08-25T09:31:36.445Z,6.63
2022-08-25T09:34:07.564Z,6.10
2022-08-25T09:36:37.745Z,5.50
2022-08-25T09:39:06.337Z,5.90
2022-08-25T09:41:56.583Z,5.68
2022-08-25T09:44:27.042Z,6.32
2022-08-25T09:47:02.357Z,7.25
2022-08-25T09:49:47.510Z,6.32
2022-08-25T09:52:32.701Z,6.50
2022-08-25T09:55:05.909Z,6.00
2022-08-25T09:57:32.770Z,5.90
2022-08-25T10:00:24.412Z,5.95
2022-08-25T10:03:26.799Z,5.43
2022-08-25T10:06:13.199Z,6.00
2022-08-25T10:08:43.588Z,5.90
2022-08-25T10:11:30.563Z,5.78
2022-08-25T10:14:05.733Z,6.30
2022-08-25T10:16:34.567Z,5.80
2022-08-25T10:19:21.961Z,6.53
2022-08-25T10:22:02.461Z,6.25
2022-08-25T10:24:29.888Z,6.18
2022-08-25T10:27:16.481Z,6.03
2022-08-25T10:30:08.194Z,6.28
2022-08-25T10:32:56.483Z,6.05
2022-08-25T10:35:37.290Z,5.90
2022-08-25T10:38:43.140Z,6.07
2022-08-25T10:41:39.714Z,6.53
2022-08-25T10:44:46.736Z,6.53
2022-08-25T10:47:13.513Z,6.35
2022-08-25T10:49:47.708Z,6.60
2022-08-25T10:52:52.145Z,6.70
2022-08-25T10:55:44.521Z,6.47
2022-08-25T10:58:52.011Z,5.93
2022-08-25T11:01:43.718Z,6.30
2022-08-25T11:04:14.608Z,6.15
2022-08-25T11:06:55.399Z,6.10
2022-08-25T11:09:30.150Z,6.75
2022-08-25T11:14:56.396Z,6.30
2022-08-25T11:17:57.024Z,6.43
2022-08-25T11:20:33.437Z,6.03
2022-08-25T11:23:03.021Z,6.47
2022-08-25T11:25:41.099Z,5.90
2022-08-25T11:28:35.702Z,6.47
2022-08-25T11:31:04.052Z,6.38
2022-08-25T11:33:33.252Z,6.40
2022-08-25T11:36:12.937Z,5.97
2022-08-25T11:39:21.475Z,6.78
2022-08-25T11:42:12.495Z,6.40
2022-08-25T11:45:07.774Z,7.32
2022-08-25T11:47:48.922Z,6.45
2022-08-25T11:50:47.955Z,6.55
2022-08-25T11:53:32.206Z,7.00
2022-08-25T11:56:06.684Z,6.20
2022-08-25T12:01:04.232Z,6.97
2022-08-25T12:03:37.234Z,6.75
2022-08-25T12:06:16.155Z,7.03
2022-08-25T12:08:52.588Z,7.30
2022-08-25T12:11:38.880Z,7.50
2022-08-25T12:14:28.919Z,7.13
2022-08-25T12:16:56.201Z,7.65
2022-08-25T12:19:26.315Z,7.30
2022-08-25T12:22:03.582Z,7.30
2022-08-25T12:24:47.768Z,6.65
2022-08-25T12:27:39.051Z,6.90
2022-08-25T12:30:18.493Z,6.55
2022-08-25T12:33:06.077Z,6.53
2022-08-25T12:35:51.502Z,7.43
2022-08-25T12:38:30.214Z,6.75
2022-08-25T12:41:15.329Z,6.60
2022-08-25T12:43:54.560Z,6.55
2022-08-25T12:46:21.721Z,7.13
2022-08-25T12:49:30.398Z,6.30
2022-08-25T12:52:15.557Z,6.72
2022-08-25T12:57:30.106Z,6.88
2022-08-25T12:59:59.526Z,6.55
2022-08-25T13:03:02.454Z,6.78
2022-08-25T13:05:49.746Z,6.70
2022-08-25T13:08:51.648Z,6.50
2022-08-25T13:11:49.770Z,6.57
2022-08-25T13:14:22.695Z,6.38
2022-08-25T13:16:58.251Z,6.50
2022-08-25T13:19:27.004Z,6.45
2022-08-25T13:21:55.971Z,6.85
2022-08-25T13:24:28.022Z,6.57
2022-08-25T13:27:05.026Z,6.45
2022-08-25T13:29:37.441Z,6.78
2022-08-25T13:32:14.502Z,6.28
2022-08-25T13:34:43.161Z,6.32
2022-08-25T13:37:31.232Z,6.72
2022-08-25T13:40:29.308Z,7.00
2022-08-25T13:43:05.922Z,6.70
2022-08-25T13:45:40.962Z,6.88
2022-08-25T13:48:21.051Z,6.80
2022-08-25T13:50:52.626Z,6.43
2022-08-25T13:53:26.260Z,6.90
2022-08-25T13:55:57.989Z,6.15
2022-08-25T13:58:39.085Z,6.95
2022-08-25T14:01:47.793Z,6.63
2022-08-25T14:04:39.686Z,6.63
2022-08-25T14:07:20.912Z,7.15
2022-08-25T14:09:53.909Z,7.18
2022-08-25T14:12:35.381Z,7.15
2022-08-25T14:15:26.112Z,8.20
2022-08-25T14:18:20.813Z,6.53
2022-08-25T14:20:55.702Z,6.63
2022-08-25T14:23:27.027Z,7.05
2022-08-25T14:25:56.539Z,6.53
2022-08-25T14:28:29.071Z,6.13
2022-08-25T14:31:08.456Z,6.50
2022-08-25T14:33:49.966Z,6.45
2022-08-25T14:36:20.757Z,5.97
2022-08-25T14:38:54.840Z,6.53
2022-08-25T14:41:23.948Z,6.40
2022-08-25T14:43:50.899Z,5.80
2022-08-25T14:46:27.855Z,6.30
2022-08-25T14:49:06.655Z,6.28
2022-08-25T14:51:34.289Z,5.95
2022-08-25T14:54:07.315Z,5.90
2022-08-25T14:56:36.003Z,6.32
2022-08-25T14:59:03.434Z,6.65
2022-08-25T15:01:32.658Z,6.50
2022-08-25T15:04:24.530Z,6.50
2022-08-25T15:06:57.877Z,6.35
2022-08-25T15:09:25.590Z,6.18
2022-08-25T15:12:00.311Z,6.40
2022-08-25T15:14:28.979Z,6.13
2022-08-25T15:17:01.705Z,6.03
2022-08-25T15:19:29.518Z,6.30
2022-08-25T15:21:58.225Z,5.90
2022-08-25T15:24:27.489Z,6.13
2022-08-25T15:26:57.642Z,5.75
2022-08-25T15:29:29.220Z,5.60
2022-08-25T15:31:56.921Z,6.85
2022-08-25T15:34:23.950Z,6.00
2022-08-25T15:36:51.595Z,6.15
2022-08-25T15:39:19.247Z,7.43
2022-08-25T15:41:52.507Z,6.10
2022-08-25T15:44:20.098Z,7.53
2022-08-25T15:46:49.778Z,6.20
2022-08-25T15:49:20.756Z,6.05
2022-08-25T15:51:54.684Z,6.22
2022-08-25T15:54:22.994Z,6.55
2022-08-25T15:56:50.185Z,6.10
2022-08-25T15:59:19.426Z,6.00
2022-08-25T16:01:49.474Z,6.13
2022-08-25T16:04:16.492Z,5.90
2022-08-25T16:06:44.759Z,5.82
2022-08-25T16:09:12.212Z,5.95
2022-08-25T16:11:39.134Z,6.38
2022-08-25T16:14:06.475Z,6.05
2022-08-25T16:16:33.868Z,5.90
2022-08-25T16:19:01.801Z,6.45
2022-08-25T16:21:30.974Z,5.95
2022-08-25T16:24:02.638Z,6.63
2022-08-25T16:26:32.843Z,5.70
2022-08-25T16:28:59.854Z,5.82
2022-08-25T16:31:38.962Z,5.82
2022-08-25T16:34:06.021Z,6.03
2022-08-25T16:36:32.924Z,6.25
2022-08-25T16:39:02.857Z,6.30
2022-08-25T16:41:37.070Z,6.97
2022-08-25T16:44:11.300Z,6.43
2022-08-25T16:46:40.808Z,5.70
2022-08-25T16:49:09.263Z,6.30
2022-08-25T16:51:38.487Z,5.85
2022-08-25T16:54:24.475Z,6.07
2022-08-25T16:56:55.150Z,6.32
2022-08-25T16:59:23.417Z,6.43
2022-08-25T17:01:51.349Z,6.13
2022-08-25T17:04:18.377Z,5.90
2022-08-25T17:06:51.856Z,6.18
2022-08-25T17:09:23.857Z,6.00
2022-08-25T17:11:54.264Z,6.15
2022-08-25T17:14:22.295Z,6.22
2022-08-25T17:16:51.286Z,6.03
2022-08-25T17:19:18.835Z,6.25
2022-08-25T17:21:50.004Z,6.28
2022-08-25T17:24:17.369Z,6.13
2022-08-25T17:26:47.216Z,5.80
2022-08-25T17:29:14.186Z,7.03
2022-08-25T17:31:44.063Z,5.30
2022-08-25T17:34:16.359Z,6.38
2022-08-25T17:36:45.294Z,5.85
2022-08-25T17:39:14.690Z,5.95
2022-08-25T17:41:43.944Z,6.57
2022-08-25T17:44:11.872Z,6.53
2022-08-25T17:46:44.159Z,6.45
2022-08-25T17:49:15.496Z,6.13
2022-08-25T17:51:43.149Z,6.05
2022-08-25T17:54:11.046Z,6.32
2022-08-25T17:56:38.095Z,6.15
2022-08-25T17:59:06.398Z,6.47
2022-08-25T18:01:40.713Z,6.80
2022-08-25T18:04:29.528Z,6.38
2022-08-25T18:06:58.570Z,6.28
2022-08-25T18:09:26.594Z,6.78
2022-08-25T18:11:53.504Z,6.20
2022-08-25T18:14:25.277Z,6.43
2022-08-25T18:16:53.754Z,6.28
2022-08-25T18:19:21.190Z,6.43
2022-08-25T18:21:48.361Z,5.97
2022-08-25T18:24:16.788Z,6.95
2022-08-25T18:26:43.863Z,6.40
2022-08-25T18:29:13.095Z,6.80
2022-08-25T18:31:42.134Z,5.90
2022-08-25T18:34:11.199Z,6.65
2022-08-25T18:36:39.211Z,6.38
2022-08-25T18:39:25.404Z,6.13
2022-08-25T18:41:52.402Z,6.47
2022-08-25T18:44:23.429Z,6.43
2022-08-25T18:46:50.518Z,6.70
2022-08-25T18:49:17.662Z,6.63
2022-08-25T18:51:48.138Z,6.80
2022-08-25T18:54:22.889Z,6.53
2022-08-25T18:56:53.881Z,7.10
2022-08-25T18:59:23.527Z,6.38
2022-08-25T19:01:52.726Z,6.18
2022-08-25T19:04:20.181Z,6.43
2022-08-25T19:06:47.585Z,6.47
2022-08-25T19:09:18.864Z,6.72
2022-08-25T19:11:47.569Z,6.47
2022-08-25T19:14:14.548Z,6.57
2022-08-25T19:16:42.509Z,7.07
2022-08-25T19:19:13.280Z,6.00
2022-08-25T19:21:44.048Z,7.05
2022-08-25T19:24:13.482Z,6.28
2022-08-25T19:26:41.764Z,7.43
2022-08-25T19:29:15.956Z,6.07
2022-08-25T19:34:20.927Z,6.80
2022-08-25T19:36:51.391Z,6.68
2022-08-25T19:39:18.508Z,6.90
2022-08-25T19:41:46.711Z,6.50
2022-08-25T19:44:15.668Z,6.35
2022-08-25T19:46:44.412Z,6.57
2022-08-25T19:49:20.957Z,6.55
2022-08-25T19:51:51.593Z,7.13
2022-08-25T19:54:28.920Z,7.28
2022-08-25T19:56:56.093Z,6.53
2022-08-25T19:59:42.764Z,6.82
2022-08-25T20:02:15.324Z,7.20
2022-08-25T20:04:49.559Z,6.93
2022-08-25T20:07:19.168Z,6.78
2022-08-25T20:09:46.307Z,6.57
2022-08-25T20:14:45.177Z,6.22
2022-08-25T20:17:13.213Z,6.70
2022-08-25T20:19:53.171Z,6.97
2022-08-25T20:22:24.996Z,7.15
2022-08-25T20:24:58.781Z,6.88
2022-08-25T20:27:37.332Z,6.25
2022-08-25T20:30:08.585Z,7.10
2022-08-25T20:32:36.990Z,6.68
2022-08-25T20:35:08.973Z,7.00
2022-08-25T20:37:36.414Z,7.07
2022-08-25T20:40:04.832Z,7.53
2022-08-25T20:42:32.040Z,7.07
2022-08-25T20:44:59.385Z,7.35
2022-08-25T20:47:26.352Z,6.80
2022-08-25T20:49:53.274Z,8.30
2022-08-25T20:52:21.083Z,6.85
2022-08-25T20:54:49.636Z,7.85
2022-08-25T20:57:25.840Z,7.10
2022-08-25T20:59:53.862Z,7.82
2022-08-25T21:02:21.264Z,7.40
2022-08-25T21:04:50.125Z,7.03
2022-08-25T21:07:20.206Z,7.75
2022-08-25T21:09:47.646Z,8.10
2022-08-25T21:12:14.962Z,7.97
2022-08-25T21:14:42.827Z,7.82
2022-08-25T21:17:14.679Z,7.07
2022-08-25T21:19:42.144Z,7.55
2022-08-25T21:22:10.809Z,7.78
2022-08-25T21:24:38.543Z,8.07
2022-08-25T21:27:05.656Z,7.63
2022-08-25T21:29:33.579Z,8.38
2022-08-25T21:32:00.788Z,7.90
2022-08-25T21:34:29.356Z,8.40
2022-08-25T21:36:58.246Z,8.60
2022-08-25T21:39:28.234Z,8.73
2022-08-25T21:41:56.642Z,8.32
2022-08-25T21:44:23.795Z,8.00
2022-08-25T21:46:54.132Z,8.52
2022-08-25T21:49:22.601Z,7.95
2022-08-25T21:52:03.247Z,8.25
2022-08-25T21:54:30.962Z,8.55
2022-08-25T21:57:01.172Z,7.97
2022-08-25T21:59:33.689Z,8.05
2022-08-25T22:02:07.085Z,9.10
2022-08-25T22:04:35.500Z,8.32
2022-08-25T22:07:02.634Z,9.50
2022-08-25T22:09:30.193Z,8.30
2022-08-25T22:11:59.666Z,7.85
2022-08-25T22:14:27.633Z,8.60
2022-08-25T22:16:55.687Z,8.10
2022-08-25T22:19:23.243Z,8.10
2022-08-25T22:21:52.823Z,9.13
2022-08-25T22:24:20.819Z,8.88
2022-08-25T22:26:49.194Z,8.85
2022-08-25T22:29:25.562Z,8.75
2022-08-25T22:31:57.861Z,8.48
2022-08-25T22:34:30.235Z,9.55
2022-08-25T22:36:58.946Z,9.23
2022-08-25T22:39:26.910Z,8.98
2022-08-25T22:41:53.892Z,9.48
2022-08-25T22:44:20.745Z,8.88
2022-08-25T22:46:47.570Z,9.38
2022-08-25T22:49:14.436Z,9.48
2022-08-25T22:51:41.514Z,9.38
2022-08-25T22:54:09.494Z,9.45
2022-08-25T22:56:37.739Z,9.05
2022-08-25T22:59:10.692Z,9.55
2022-08-25T23:01:37.682Z,9.30
2022-08-25T23:04:07.261Z,9.57
2022-08-25T23:06:34.526Z,8.45
2022-08-25T23:09:02.878Z,9.60
2022-08-25T23:14:11.232Z,8.75
2022-08-25T23:16:39.916Z,9.18
2022-08-25T23:19:11.169Z,9.45
2022-08-25T23:21:59.913Z,10.35
2022-08-25T23:24:29.995Z,9.25
2022-08-25T23:27:03.844Z,10.73
2022-08-25T23:29:32.008Z,9.15
2022-08-25T23:31:59.404Z,10.60
2022-08-25T23:34:28.428Z,9.27
2022-08-25T23:36:55.957Z,10.43
2022-08-25T23:39:23.244Z,9.70
2022-08-25T23:41:53.516Z,9.75
2022-08-25T23:44:21.462Z,8.73
2022-08-25T23:46:49.324Z,11.10
2022-08-25T23:49:18.972Z,9.98
2022-08-25T23:51:50.346Z,10.70
2022-08-25T23:54:20.888Z,9.80
2022-08-25T23:56:51.396Z,10.10
2022-08-25T23:59:24.902Z,10.20
